Time;durP1;ratioP1;P1;durP2;ratioP2;P2;SDS_P1;SDS_P2;PMS_P1;PMS_P2;Temp;Humidity;BMP_temperature;BMP_pressure;BME280_temperature;BME280_humidity;BME280_pressure;Samples;Min_cycle;Max_cycle;Signal;HPM_P1;HPM_P2
2021/11/29 00:02:07;;;;;;;72.20;54.30;;;;;;;1.06;81.18;98410.80;108508;1277;22002;-75
2021/11/29 00:04:36;;;;;;;71.10;54.50;;;;;;;1.06;81.25;98420.02;108913;1277;21969;-76
2021/11/29 00:07:11;;;;;;;76.20;54.30;;;;;;;1.06;81.38;98417.09;108482;1278;22128;-77
2021/11/29 00:09:41;;;;;;;66.90;55.20;;;;;;;1.08;81.34;98417.08;108276;1282;22710;-77
2021/11/29 00:12:10;;;;;;;67.40;51.20;;;;;;;1.09;81.42;98413.60;108391;1282;23621;-77
2021/11/29 00:14:40;;;;;;;66.00;49.10;;;;;;;1.11;81.50;98412.91;108473;1282;21996;-77
2021/11/29 00:17:19;;;;;;;68.50;53.30;;;;;;;1.12;81.45;98409.52;108237;1283;23841;-75
2021/11/29 00:19:49;;;;;;;66.40;53.60;;;;;;;1.14;81.55;98415.77;108216;1283;22316;-75
2021/11/29 00:22:18;;;;;;;68.90;53.60;;;;;;;1.14;81.38;98420.71;108032;1288;23017;-77
2021/11/29 00:24:48;;;;;;;68.30;53.80;;;;;;;1.15;81.38;98430.15;108028;1285;21998;-76
2021/11/29 00:27:18;;;;;;;69.50;53.30;;;;;;;1.14;81.34;98430.60;107997;1288;23592;-76
2021/11/29 00:29:47;;;;;;;75.70;57.60;;;;;;;1.13;81.30;98426.73;108049;1287;23605;-75
2021/11/29 00:32:16;;;;;;;69.50;54.60;;;;;;;1.12;81.28;98433.61;108066;1288;22076;-75
2021/11/29 00:34:46;;;;;;;72.70;54.30;;;;;;;1.10;81.32;98431.55;108040;1288;22008;-76
2021/11/29 00:37:15;;;;;;;71.60;55.50;;;;;;;1.10;81.35;98432.08;108007;1288;24311;-75
2021/11/29 00:39:44;;;;;;;70.00;53.40;;;;;;;1.11;81.37;98432.38;108031;1288;22106;-75
2021/11/29 00:42:14;;;;;;;74.70;55.60;;;;;;;1.11;81.28;98431.69;108004;1288;22006;-75
2021/11/29 00:44:43;;;;;;;71.00;55.50;;;;;;;1.11;81.38;98435.79;108032;1280;22176;-75
2021/11/29 00:47:12;;;;;;;67.70;53.10;;;;;;;1.10;81.35;98435.52;108512;1277;22029;-75
2021/11/29 00:49:41;;;;;;;65.40;51.80;;;;;;;1.09;81.36;98439.09;108562;1278;23676;-75
2021/11/29 00:52:11;;;;;;;71.40;54.70;;;;;;;1.09;81.40;98443.77;108587;1278;23775;-75
2021/11/29 00:54:40;;;;;;;71.80;53.70;;;;;;;1.11;81.46;98438.75;108591;1278;21990;-75
2021/11/29 00:57:12;;;;;;;78.30;56.50;;;;;;;1.12;81.25;98441.29;108548;1280;23029;-75
2021/11/29 00:59:46;;;;;;;73.90;54.00;;;;;;;1.11;81.36;98436.66;108786;1278;21988;-76
2021/11/29 01:02:17;;;;;;;65.50;51.80;;;;;;;1.09;81.38;98435.27;108847;1277;22173;-76
2021/11/29 01:04:48;;;;;;;68.30;51.70;;;;;;;1.08;81.43;98444.27;108572;1274;21995;-76
2021/11/29 01:07:17;;;;;;;63.70;51.10;;;;;;;1.07;81.40;98445.45;108693;1274;22053;-76
2021/11/29 01:09:46;;;;;;;55.30;45.60;;;;;;;1.06;81.47;98448.46;108390;1280;22051;-76
2021/11/29 01:12:16;;;;;;;58.10;46.20;;;;;;;1.07;81.57;98456.17;108417;1280;24555;-75
2021/11/29 01:14:45;;;;;;;56.30;46.50;;;;;;;1.08;81.50;98458.95;108526;1280;23045;-75
2021/11/29 01:17:14;;;;;;;55.50;43.60;;;;;;;1.07;81.54;98454.43;108448;1281;144527;-74
2021/11/29 01:19:44;;;;;;;52.50;44.70;;;;;;;1.07;81.59;98449.68;108498;1281;24569;-75
2021/11/29 01:22:13;;;;;;;53.20;42.40;;;;;;;1.09;81.69;98445.95;108709;1279;23030;-74
2021/11/29 01:24:42;;;;;;;49.50;41.30;;;;;;;1.08;81.60;98444.57;108534;1280;22118;-75
2021/11/29 01:27:12;;;;;;;49.40;40.70;;;;;;;1.06;81.47;98440.95;108116;1281;23605;-75
2021/11/29 01:29:41;;;;;;;55.20;41.30;;;;;;;1.05;81.56;98439.65;108748;1280;23035;-74
2021/11/29 01:32:10;;;;;;;55.50;42.70;;;;;;;1.04;81.60;98433.90;108480;1280;23158;-74
2021/11/29 01:34:39;;;;;;;50.20;42.90;;;;;;;1.05;81.63;98432.82;108460;1280;23702;-75
2021/11/29 01:37:08;;;;;;;54.90;46.00;;;;;;;1.05;81.64;98433.80;108468;1281;21981;-74
2021/11/29 01:39:38;;;;;;;51.40;43.50;;;;;;;1.06;81.62;98432.54;108551;1281;22739;-74
2021/11/29 01:42:09;;;;;;;54.10;44.30;;;;;;;1.05;81.62;98433.09;108478;1280;22011;-75
2021/11/29 01:44:40;;;;;;;56.20;45.50;;;;;;;1.04;81.55;98430.58;108698;1281;22222;-76
2021/11/29 01:47:09;;;;;;;50.40;41.80;;;;;;;1.03;81.54;98431.03;108755;1280;22045;-75
2021/11/29 01:49:38;;;;;;;52.70;43.40;;;;;;;1.03;81.57;98427.97;108568;1281;21992;-75
2021/11/29 01:52:07;;;;;;;54.80;43.10;;;;;;;1.01;81.59;98427.09;108702;1274;24403;-76
2021/11/29 01:54:36;;;;;;;60.90;46.40;;;;;;;1.02;81.61;98428.93;109118;1274;22937;-76
2021/11/29 01:57:06;;;;;;;58.80;46.90;;;;;;;1.02;81.69;98430.47;108883;1274;22870;-75
2021/11/29 01:59:36;;;;;;;57.90;46.40;;;;;;;1.02;81.61;98433.48;109120;1274;23591;-75
2021/11/29 02:02:05;;;;;;;53.80;45.10;;;;;;;1.02;81.63;98434.27;108881;1274;22025;-75
2021/11/29 02:04:35;;;;;;;53.10;43.70;;;;;;;1.02;81.68;98436.57;108925;1273;21992;-75
2021/11/29 02:07:05;;;;;;;57.30;44.50;;;;;;;1.01;81.61;98436.67;108963;1274;22444;-76
2021/11/29 02:09:34;;;;;;;54.50;44.10;;;;;;;1.01;81.68;98431.70;109179;1273;22733;-76
2021/11/29 02:12:04;;;;;;;53.80;42.10;;;;;;;1.00;81.69;98424.60;108567;1281;23811;-75
2021/11/29 02:14:33;;;;;;;53.80;43.40;;;;;;;0.99;81.68;98413.59;108591;1277;23039;-76
2021/11/29 02:17:06;;;;;;;53.70;44.90;;;;;;;0.99;81.73;98409.96;108630;1281;22044;-75
2021/11/29 02:19:43;;;;;;;56.70;46.10;;;;;;;0.99;81.68;98407.57;108599;1281;23618;-75
2021/11/29 02:22:13;;;;;;;57.10;46.80;;;;;;;0.98;81.69;98408.17;108736;1280;23704;-75
2021/11/29 02:24:43;;;;;;;52.60;44.00;;;;;;;0.99;81.77;98412.27;108625;1281;23715;-75
2021/11/29 02:27:12;;;;;;;55.90;45.30;;;;;;;1.00;81.85;98417.49;108580;1280;22021;-76
2021/11/29 02:29:42;;;;;;;50.70;41.60;;;;;;;1.03;81.81;98420.19;108340;1286;24330;-75
2021/11/29 02:32:11;;;;;;;45.60;38.50;;;;;;;1.03;81.73;98422.13;108255;1285;22008;-75
2021/11/29 02:34:40;;;;;;;48.90;41.00;;;;;;;1.02;81.71;98421.14;108207;1285;23612;-75
2021/11/29 02:37:10;;;;;;;46.30;38.40;;;;;;;1.02;81.70;98425.59;108513;1280;23609;-75
2021/11/29 02:39:41;;;;;;;48.70;41.30;;;;;;;1.03;81.75;98423.64;108484;1280;23032;-75
2021/11/29 02:42:13;;;;;;;49.60;40.30;;;;;;;1.03;81.67;98420.36;108403;1284;23627;-75
2021/11/29 02:44:42;;;;;;;48.70;41.00;;;;;;;1.02;81.77;98422.82;108135;1286;22000;-75
2021/11/29 02:47:12;;;;;;;51.20;39.30;;;;;;;1.01;81.65;98420.71;108421;1280;21996;-75
2021/11/29 02:49:41;;;;;;;47.80;37.70;;;;;;;1.00;81.71;98421.01;108174;1286;22483;-74
2021/11/29 02:52:15;;;;;;;47.20;38.70;;;;;;;1.00;81.73;98422.39;108391;1283;23051;-75
2021/11/29 02:54:45;;;;;;;50.70;40.30;;;;;;;1.01;81.73;98422.27;108258;1285;22468;-75
2021/11/29 02:57:20;;;;;;;48.70;40.40;;;;;;;1.00;81.72;98425.33;108409;1286;23681;-75
2021/11/29 02:59:50;;;;;;;47.60;38.70;;;;;;;1.00;81.65;98431.20;108419;1277;21985;-75
2021/11/29 03:02:20;;;;;;;47.90;39.00;;;;;;;1.00;81.74;98439.14;108549;1279;22012;-75
2021/11/29 03:04:50;;;;;;;45.50;38.20;;;;;;;1.02;81.72;98438.95;108884;1278;21980;-75
2021/11/29 03:07:20;;;;;;;47.70;38.10;;;;;;;1.03;81.72;98442.83;108673;1274;21978;-75
2021/11/29 03:09:50;;;;;;;45.50;38.50;;;;;;;1.05;81.77;98447.67;109156;1273;23074;-76
2021/11/29 03:12:19;;;;;;;47.60;37.30;;;;;;;1.07;81.73;98450.80;109217;1273;23056;-75
2021/11/29 03:14:50;;;;;;;48.30;39.10;;;;;;;1.07;81.68;98454.42;108925;1274;22005;-76
2021/11/29 03:17:19;;;;;;;49.50;41.00;;;;;;;1.07;81.76;98458.72;108919;1274;22917;-76
2021/11/29 03:19:48;;;;;;;52.90;40.10;;;;;;;1.08;81.73;98460.83;108957;1274;22447;-76
2021/11/29 03:22:17;;;;;;;53.00;40.90;;;;;;;1.10;81.71;98458.23;108552;1280;22054;-76
2021/11/29 03:24:49;;;;;;;53.00;41.10;;;;;;;1.10;81.68;98452.39;108619;1280;21996;-75
2021/11/29 03:27:19;;;;;;;55.00;41.00;;;;;;;1.11;81.70;98452.98;108624;1280;21976;-75
2021/11/29 03:29:49;;;;;;;56.30;42.10;;;;;;;1.11;81.67;98451.77;108456;1280;23035;-76
2021/11/29 03:32:19;;;;;;;56.50;42.40;;;;;;;1.12;81.72;98452.36;108100;1286;23602;-76
2021/11/29 03:34:49;;;;;;;59.70;44.50;;;;;;;1.12;81.70;98455.16;108226;1286;21998;-75
2021/11/29 03:37:19;;;;;;;59.30;44.30;;;;;;;1.11;81.62;98457.98;107748;1294;21995;-75
2021/11/29 03:39:48;;;;;;;56.50;42.90;;;;;;;1.12;81.69;98466.26;107948;1288;23067;-75
2021/11/29 03:42:17;;;;;;;53.60;40.70;;;;;;;1.10;81.60;98464.19;107731;1291;23714;-75
2021/11/29 03:44:47;;;;;;;57.60;43.00;;;;;;;1.10;81.62;98469.77;107723;1289;24622;-75
2021/11/29 03:47:16;;;;;;;56.10;41.00;;;;;;;1.09;81.75;98467.76;107709;1293;22370;-75
2021/11/29 03:49:45;;;;;;;56.90;42.90;;;;;;;1.08;81.68;98465.90;107342;1291;22771;-75
2021/11/29 03:52:15;;;;;;;55.60;43.00;;;;;;;1.09;81.71;98466.39;107483;1297;22038;-75
2021/11/29 03:54:44;;;;;;;52.90;40.70;;;;;;;1.08;81.70;98463.98;107561;1291;22529;-75
2021/11/29 03:57:13;;;;;;;52.20;39.80;;;;;;;1.07;81.68;98460.98;107846;1290;22008;-75
2021/11/29 03:59:43;;;;;;;49.70;38.30;;;;;;;1.06;81.65;98460.81;108077;1286;22035;-74
2021/11/29 04:02:13;;;;;;;53.20;42.20;;;;;;;1.05;81.70;98462.98;108087;1290;23672;-75
2021/11/29 04:04:42;;;;;;;51.90;39.90;;;;;;;1.05;81.75;98460.91;108028;1291;22000;-74
2021/11/29 04:07:12;;;;;;;48.90;38.30;;;;;;;1.05;81.78;98459.31;108023;1291;22464;-74
2021/11/29 04:09:41;;;;;;;46.00;37.00;;;;;;;1.06;81.78;98458.51;108098;1286;22072;-75
2021/11/29 04:12:10;;;;;;;49.70;39.10;;;;;;;1.07;81.80;98454.09;108184;1285;23061;-75
2021/11/29 04:14:39;;;;;;;47.50;38.50;;;;;;;1.06;81.68;98457.09;108360;1280;22742;-75
2021/11/29 04:17:08;;;;;;;50.90;41.00;;;;;;;1.07;81.78;98458.98;108654;1280;23080;-75
2021/11/29 04:19:41;;;;;;;49.00;38.50;;;;;;;1.07;81.86;98460.95;108479;1276;23052;-76
2021/11/29 04:22:13;;;;;;;51.40;40.00;;;;;;;1.09;81.80;98468.48;109094;1273;23004;-75
2021/11/29 04:24:44;;;;;;;45.60;36.70;;;;;;;1.09;81.88;98468.95;108623;1281;22278;-75
2021/11/29 04:27:14;;;;;;;45.40;36.60;;;;;;;1.10;81.86;98470.80;108505;1279;22126;-75
2021/11/29 04:29:46;;;;;;;44.10;36.60;;;;;;;1.10;81.86;98469.71;108623;1280;22059;-75
2021/11/29 04:32:15;;;;;;;47.20;38.10;;;;;;;1.13;81.88;98472.72;108413;1285;23620;-75
2021/11/29 04:34:44;;;;;;;43.60;35.80;;;;;;;1.14;81.85;98474.81;108455;1284;23693;-75
2021/11/29 04:37:14;;;;;;;44.40;36.30;;;;;;;1.16;81.80;98470.50;108383;1285;21968;-75
2021/11/29 04:39:43;;;;;;;42.60;34.90;;;;;;;1.15;81.65;98468.54;108400;1283;22124;-75
2021/11/29 04:42:12;;;;;;;44.60;35.30;;;;;;;1.15;81.69;98474.45;108335;1279;23589;-75
2021/11/29 04:44:42;;;;;;;41.20;36.60;;;;;;;1.14;81.67;98472.38;108617;1280;23888;-75
2021/11/29 04:47:11;;;;;;;39.60;32.90;;;;;;;1.12;81.62;98474.19;108590;1280;22635;-75
2021/11/29 04:49:40;;;;;;;39.90;32.20;;;;;;;1.11;81.69;98473.98;108467;1279;22625;-75
2021/11/29 04:52:10;;;;;;;41.50;33.20;;;;;;;1.08;81.68;98471.79;108603;1279;22039;-75
2021/11/29 04:54:40;;;;;;;35.70;31.00;;;;;;;1.08;81.75;98470.65;108620;1280;21987;-74
2021/11/29 04:57:09;;;;;;;36.60;30.30;;;;;;;1.07;81.71;98469.50;108642;1278;23066;-75
2021/11/29 04:59:39;;;;;;;34.70;30.70;;;;;;;1.06;81.80;98473.57;108539;1282;22029;-74
2021/11/29 05:02:08;;;;;;;40.10;32.30;;;;;;;1.05;81.76;98465.04;108417;1283;23689;-74
2021/11/29 05:04:38;;;;;;;38.30;31.00;;;;;;;1.04;81.80;98465.62;108488;1282;22769;-74
2021/11/29 05:07:07;;;;;;;34.50;30.50;;;;;;;1.04;81.83;98467.17;108424;1280;21981;-74
2021/11/29 05:09:36;;;;;;;38.90;32.20;;;;;;;1.04;81.81;98461.48;108588;1280;21982;-74
2021/11/29 05:12:07;;;;;;;34.50;30.70;;;;;;;1.05;81.82;98463.80;108479;1277;23054;-75
2021/11/29 05:14:37;;;;;;;35.70;31.40;;;;;;;1.06;81.79;98465.08;108367;1285;21983;-75
2021/11/29 05:17:06;;;;;;;34.60;31.00;;;;;;;1.07;81.82;98464.95;108327;1282;22001;-74
2021/11/29 05:19:39;;;;;;;35.30;30.00;;;;;;;1.09;81.82;98461.29;108452;1279;23669;-75
2021/11/29 05:22:10;;;;;;;32.60;28.10;;;;;;;1.10;81.77;98459.80;108645;1280;23707;-75
2021/11/29 05:24:40;;;;;;;35.10;30.00;;;;;;;1.10;81.77;98461.79;108397;1283;22024;-75
2021/11/29 05:27:10;;;;;;;32.00;27.00;;;;;;;1.10;81.79;98459.10;108370;1284;23675;-74
2021/11/29 05:29:40;;;;;;;32.60;28.40;;;;;;;1.11;81.75;98464.78;108227;1285;23116;-75
2021/11/29 05:32:09;;;;;;;35.30;30.20;;;;;;;1.10;81.67;98472.48;108351;1280;22289;-75
2021/11/29 05:34:39;;;;;;;41.80;34.30;;;;;;;1.09;81.64;98473.80;108461;1278;22017;-75
2021/11/29 05:37:31;;;;;;;34.10;29.90;;;;;;;1.08;81.61;98478.39;108662;1280;23064;-75
2021/11/29 05:40:03;;;;;;;31.50;26.90;;;;;;;1.07;81.61;98483.73;108554;1280;22178;-76
2021/11/29 05:42:51;;;;;;;28.90;25.80;;;;;;;1.05;81.75;98491.70;108574;1280;22311;-76
2021/11/29 05:45:24;;;;;;;28.30;25.40;;;;;;;1.05;81.64;98496.43;108881;1279;23133;-76
2021/11/29 05:48:00;;;;;;;29.20;26.00;;;;;;;1.07;81.73;98500.90;108623;1285;22013;-77
2021/11/29 05:50:33;;;;;;;29.50;24.60;;;;;;;1.08;81.74;98501.95;108359;1285;21987;-77
2021/11/29 05:53:13;;;;;;;26.80;23.90;;;;;;;1.09;81.68;98506.90;108369;1285;22762;-76
2021/11/29 05:55:51;;;;;;;26.80;23.60;;;;;;;1.10;81.67;98510.13;108406;1285;21995;-76
2021/11/29 05:58:27;;;;;;;29.60;23.50;;;;;;;1.11;81.64;98513.13;107987;1291;23137;-76
2021/11/29 06:01:06;;;;;;;29.20;25.90;;;;;;;1.11;81.67;98518.64;108062;1285;21991;-76
2021/11/29 06:03:39;;;;;;;27.00;24.10;;;;;;;1.12;81.66;98521.13;108240;1287;22234;-76
2021/11/29 06:06:09;;;;;;;25.50;22.60;;;;;;;1.14;81.69;98523.80;108160;1287;23759;-77
2021/11/29 06:08:41;;;;;;;26.00;22.80;;;;;;;1.12;81.62;98521.48;108263;1286;22009;-74
2021/11/29 06:11:10;;;;;;;27.40;24.40;;;;;;;1.13;81.68;98526.44;108392;1286;23635;-75
2021/11/29 06:13:44;;;;;;;25.80;22.20;;;;;;;1.15;81.70;98528.16;108200;1287;22167;-76
2021/11/29 06:16:16;;;;;;;25.50;22.40;;;;;;;1.15;81.66;98530.21;108421;1280;22016;-75
2021/11/29 06:18:48;;;;;;;;;;;;;;;1.15;81.67;98531.06;108661;1281;21966;-76
2021/11/29 06:21:26;;;;;;;25.80;22.80;;;;;;;1.09;81.77;98534.33;108703;1274;23060;-76
2021/11/29 06:23:55;;;;;;;25.10;22.40;;;;;;;1.09;81.72;98532.92;108950;1274;22975;-75
2021/11/29 06:26:27;;;;;;;25.00;21.80;;;;;;;1.12;81.78;98538.55;108945;1274;23161;-75
2021/11/29 06:28:56;;;;;;;24.60;22.00;;;;;;;1.13;81.80;98530.92;108932;1274;21980;-75
2021/11/29 06:31:25;;;;;;;22.50;20.10;;;;;;;1.16;81.84;98535.48;108854;1274;23682;-76
2021/11/29 06:33:58;;;;;;;21.90;19.70;;;;;;;1.17;81.78;98537.64;108633;1281;22996;-75
2021/11/29 06:36:36;;;;;;;27.00;20.70;;;;;;;1.16;81.64;98542.99;108432;1283;23732;-75
2021/11/29 06:39:24;;;;;;;26.40;21.30;;;;;;;1.17;81.71;98542.56;108389;1284;23587;-80
2021/11/29 06:42:14;;;;;;;27.20;23.80;;;;;;;1.17;81.66;98545.80;108355;1283;23534;-75
2021/11/29 06:44:43;;;;;;;21.00;18.70;;;;;;;1.17;81.66;98548.44;108066;1291;22003;-75
2021/11/29 06:47:12;;;;;;;22.20;18.80;;;;;;;1.18;81.71;98548.38;107658;1292;22065;-74
2021/11/29 06:49:41;;;;;;;21.30;19.00;;;;;;;1.19;81.67;98547.73;107818;1291;21999;-75
2021/11/29 06:52:11;;;;;;;22.50;19.00;;;;;;;1.18;81.66;98550.74;108132;1286;23754;-74
2021/11/29 06:54:40;;;;;;;20.30;17.90;;;;;;;1.18;81.69;98553.02;108220;1280;22654;-76
2021/11/29 06:57:10;;;;;;;23.50;18.20;;;;;;;1.18;81.79;98552.15;108520;1280;22980;-76
2021/11/29 06:59:39;;;;;;;21.50;18.10;;;;;;;1.19;81.76;98561.05;108472;1281;21985;-76
2021/11/29 07:02:08;;;;;;;21.20;19.10;;;;;;;1.20;81.71;98563.77;108117;1282;23048;-75
2021/11/29 07:04:38;;;;;;;20.70;18.50;;;;;;;1.20;81.72;98561.36;108643;1282;22978;-75
2021/11/29 07:07:07;;;;;;;22.50;19.10;;;;;;;1.20;81.72;98564.06;108444;1282;21998;-75
2021/11/29 07:09:38;;;;;;;20.80;18.80;;;;;;;1.22;81.76;98564.81;108647;1280;23074;-76
2021/11/29 07:12:07;;;;;;;21.50;18.60;;;;;;;1.21;81.69;98566.25;108569;1280;22643;-75
2021/11/29 07:14:37;;;;;;;20.80;18.70;;;;;;;1.19;81.69;98569.55;108452;1284;22020;-76
2021/11/29 07:17:06;;;;;;;21.50;17.80;;;;;;;1.18;81.74;98569.09;108360;1284;22240;-76
2021/11/29 07:19:37;;;;;;;24.80;20.60;;;;;;;1.19;81.67;98569.77;108497;1278;23862;-76
2021/11/29 07:22:06;;;;;;;23.60;20.90;;;;;;;1.20;81.78;98572.06;108622;1278;23695;-77
2021/11/29 07:24:36;;;;;;;24.00;21.20;;;;;;;1.22;81.87;98573.05;108588;1278;23688;-76
2021/11/29 07:27:06;;;;;;;22.00;19.70;;;;;;;1.25;81.83;98577.84;108572;1278;21998;-76
2021/11/29 07:29:35;;;;;;;23.00;20.30;;;;;;;1.25;81.78;98580.90;108168;1286;23712;-76
2021/11/29 07:32:05;;;;;;;22.70;20.30;;;;;;;1.25;81.71;98580.58;107800;1286;22393;-76
2021/11/29 07:34:34;;;;;;;26.70;23.10;;;;;;;1.26;81.68;98580.14;108169;1286;23082;-76
2021/11/29 07:37:04;;;;;;;22.80;20.40;;;;;;;1.27;81.69;98582.87;108425;1286;22721;-76
2021/11/29 07:39:33;;;;;;;23.60;20.80;;;;;;;1.27;81.63;98582.64;108201;1286;22013;-76
2021/11/29 07:42:07;;;;;;;23.60;19.50;;;;;;;1.26;81.59;98584.82;108345;1284;21989;-77
2021/11/29 07:44:43;;;;;;;22.20;19.90;;;;;;;1.24;81.60;98583.60;108289;1285;22004;-76
2021/11/29 07:47:12;;;;;;;23.70;20.10;;;;;;;1.23;81.65;98588.38;108194;1278;21999;-76
2021/11/29 07:49:42;;;;;;;24.60;21.60;;;;;;;1.23;81.72;98588.75;108150;1282;23037;-75
2021/11/29 07:52:14;;;;;;;24.30;21.80;;;;;;;1.26;81.71;98590.04;108460;1282;23709;-75
2021/11/29 07:54:46;;;;;;;22.70;20.30;;;;;;;1.27;81.75;98593.70;108477;1282;23857;-76
2021/11/29 07:57:17;;;;;;;21.80;19.50;;;;;;;1.27;81.74;98601.34;108064;1287;22684;-76
2021/11/29 07:59:46;;;;;;;21.90;18.50;;;;;;;1.28;81.81;98600.89;107737;1289;22357;-76
2021/11/29 08:02:20;;;;;;;24.90;21.10;;;;;;;1.29;81.81;98606.36;107715;1291;23059;-76
2021/11/29 08:04:52;;;;;;;21.20;18.70;;;;;;;1.32;81.81;98611.81;107828;1291;23605;-78
2021/11/29 08:07:24;;;;;;;20.60;18.50;;;;;;;1.33;81.78;98614.69;108055;1285;22483;-76
2021/11/29 08:09:53;;;;;;;23.20;20.90;;;;;;;1.34;81.76;98615.11;108337;1285;21989;-77
2021/11/29 08:12:22;;;;;;;23.30;21.00;;;;;;;1.33;81.76;98619.11;108329;1285;22997;-76
2021/11/29 08:14:53;;;;;;;27.70;24.70;;;;;;;1.33;81.73;98623.86;108446;1285;23576;-78
2021/11/29 08:17:23;;;;;;;27.40;24.70;;;;;;;1.31;81.72;98626.26;108142;1285;24008;-77
2021/11/29 08:19:52;;;;;;;22.70;20.50;;;;;;;1.30;81.74;98628.32;108298;1285;21998;-77
2021/11/29 08:22:24;;;;;;;26.20;23.40;;;;;;;1.30;81.62;98633.98;108463;1281;21996;-77
2021/11/29 08:24:53;;;;;;;31.90;28.80;;;;;;;1.31;81.76;98631.29;108128;1285;23170;-78
2021/11/29 08:27:22;;;;;;;28.60;25.70;;;;;;;1.35;81.85;98635.64;108222;1285;23042;-77
2021/11/29 08:29:52;;;;;;;26.40;23.70;;;;;;;1.39;81.89;98639.19;108116;1286;21996;-76
2021/11/29 08:32:21;;;;;;;27.80;25.00;;;;;;;1.43;81.70;98640.87;108192;1284;22019;-78
2021/11/29 08:34:50;;;;;;;36.40;32.60;;;;;;;1.45;81.76;98639.35;107840;1286;22840;-78
2021/11/29 08:37:19;;;;;;;45.20;40.20;;;;;;;1.46;81.69;98642.17;108397;1285;22032;-78
2021/11/29 08:40:06;;;;;;;40.10;35.50;;;;;;;1.46;81.53;98644.25;108128;1288;23427;-77
2021/11/29 08:42:35;;;;;;;33.00;29.50;;;;;;;1.47;81.51;98648.81;108466;1281;23789;-76
2021/11/29 08:45:06;;;;;;;28.80;25.80;;;;;;;1.49;81.53;98654.67;108276;1285;22122;-77
2021/11/29 08:47:36;;;;;;;33.90;30.50;;;;;;;1.49;81.42;98658.89;108072;1290;21994;-77
2021/11/29 08:50:08;;;;;;;30.30;26.90;;;;;;;1.49;81.42;98660.30;107564;1295;22011;-78
2021/11/29 08:53:05;;;;;;;35.60;31.90;;;;;;;1.50;81.41;98664.87;107637;1291;22202;-77
2021/11/29 08:55:35;;;;;;;30.20;27.20;;;;;;;1.51;81.41;98664.70;107696;1290;22070;-78
2021/11/29 08:58:09;;;;;;;29.00;25.30;;;;;;;1.52;81.27;98663.92;107678;1291;22014;-77
2021/11/29 09:00:45;;;;;;;28.40;25.50;;;;;;;1.52;81.27;98667.58;107761;1291;22410;-77
2021/11/29 09:03:14;;;;;;;31.40;28.30;;;;;;;1.49;81.04;98668.23;107907;1288;23648;-77
2021/11/29 09:05:47;;;;;;;33.40;29.90;;;;;;;1.45;81.04;98667.29;107827;1286;23886;-77
2021/11/29 09:08:17;;;;;;;31.30;28.20;;;;;;;1.42;81.04;98675.67;108280;1283;22038;-78
2021/11/29 09:10:51;;;;;;;30.80;27.50;;;;;;;1.41;81.18;98677.03;108302;1285;23503;-77
2021/11/29 09:13:44;;;;;;;32.50;29.00;;;;;;;1.38;81.08;98679.84;108042;1291;23722;-78
2021/11/29 09:16:17;;;;;;;34.60;30.30;;;;;;;1.35;81.17;98682.91;108033;1289;23599;-78
2021/11/29 09:18:46;;;;;;;33.80;30.30;;;;;;;1.36;81.20;98679.38;107927;1289;184865;-77
2021/11/29 09:21:20;;;;;;;39.30;33.50;;;;;;;1.36;81.15;98678.88;107802;1291;22321;-79
2021/11/29 09:23:50;;;;;;;35.70;31.80;;;;;;;1.33;81.12;98676.87;108108;1283;23118;-76
2021/11/29 09:26:24;;;;;;;40.00;35.40;;;;;;;1.33;81.12;98672.55;108308;1285;23862;-77
2021/11/29 09:28:57;;;;;;;38.20;33.60;;;;;;;1.33;81.16;98674.30;108562;1278;23566;-77
2021/11/29 09:31:27;;;;;;;39.00;34.70;;;;;;;1.34;81.30;98674.02;108594;1274;21973;-77
2021/11/29 09:33:57;;;;;;;37.00;33.10;;;;;;;1.36;81.28;98669.33;108934;1274;23671;-76
2021/11/29 09:36:26;;;;;;;39.10;32.70;;;;;;;1.38;81.27;98669.52;108970;1274;23876;-77
2021/11/29 09:38:55;;;;;;;36.70;32.70;;;;;;;1.37;81.17;98665.23;109075;1272;21987;-77
2021/11/29 09:41:26;;;;;;;37.70;32.40;;;;;;;1.35;81.12;98666.66;108966;1274;23685;-76
2021/11/29 09:43:55;;;;;;;41.20;32.90;;;;;;;1.33;81.14;98668.38;108473;1280;21999;-76
2021/11/29 09:46:26;;;;;;;38.70;32.80;;;;;;;1.35;81.25;98670.83;108450;1280;23685;-76
2021/11/29 09:48:57;;;;;;;40.50;34.30;;;;;;;1.36;81.27;98665.33;108544;1283;22103;-76
2021/11/29 09:51:37;;;;;;;38.70;34.30;;;;;;;1.38;81.17;98665.85;108581;1282;22697;-76
2021/11/29 09:54:08;;;;;;;40.90;36.40;;;;;;;1.41;81.25;98669.38;108658;1281;24171;-76
2021/11/29 09:56:40;;;;;;;49.00;42.40;;;;;;;1.42;81.21;98663.89;108436;1280;22047;-76
2021/11/29 09:59:12;;;;;;;45.90;38.70;;;;;;;1.42;81.16;98662.73;108614;1280;23734;-76
2021/11/29 10:02:01;;;;;;;40.30;35.80;;;;;;;1.41;81.12;98663.30;108661;1274;23685;-79
2021/11/29 10:04:31;;;;;;;50.40;40.90;;;;;;;1.42;81.26;98666.65;108884;1274;21978;-75
2021/11/29 10:07:03;;;;;;;45.40;38.00;;;;;;;1.43;81.13;98662.59;108865;1274;21969;-76
2021/11/29 10:09:40;;;;;;;42.40;34.90;;;;;;;1.40;80.99;98661.60;108955;1274;21969;-76
2021/11/29 10:12:09;;;;;;;41.10;35.70;;;;;;;1.40;80.98;98664.66;108909;1274;22002;-75
2021/11/29 10:15:05;;;;;;;46.50;37.80;;;;;;;1.39;81.08;98664.49;109099;1274;21977;-76
2021/11/29 10:17:37;;;;;;;41.10;35.40;;;;;;;1.38;80.99;98667.92;108981;1273;22094;-76
2021/11/29 10:20:30;;;;;;;42.60;35.70;;;;;;;1.36;81.06;98666.00;108939;1274;24391;-76
2021/11/29 10:23:07;;;;;;;42.60;37.30;;;;;;;1.36;81.05;98664.44;108901;1274;22034;-76
2021/11/29 10:25:44;;;;;;;42.10;33.90;;;;;;;1.35;81.05;98667.66;108617;1280;21994;-76
2021/11/29 10:28:29;;;;;;;41.80;36.20;;;;;;;1.36;81.12;98664.40;108824;1277;24894;-76
2021/11/29 10:31:37;;;;;;;38.30;33.70;;;;;;;1.38;81.02;98661.69;108735;1278;23038;-76
2021/11/29 10:34:13;;;;;;;39.90;33.50;;;;;;;1.38;81.04;98661.84;108742;1279;21970;-75
2021/11/29 10:36:50;;;;;;;45.30;35.00;;;;;;;1.43;81.21;98661.75;108697;1280;21977;-75
2021/11/29 10:39:25;;;;;;;43.20;34.80;;;;;;;1.49;81.28;98665.09;108673;1280;22701;-75
2021/11/29 10:42:01;;;;;;;40.90;34.20;;;;;;;1.58;81.36;98668.40;108747;1280;22002;-75
2021/11/29 10:44:35;;;;;;;45.60;36.20;;;;;;;1.65;81.25;98665.98;108922;1274;21993;-75
2021/11/29 10:47:16;;;;;;;43.90;35.20;;;;;;;1.70;81.14;98669.31;108870;1274;22054;-76
2021/11/29 10:49:52;;;;;;;39.90;35.70;;;;;;;1.76;81.14;98667.98;108900;1274;21987;-76
2021/11/29 10:52:28;;;;;;;46.00;36.50;;;;;;;1.81;80.93;98667.65;108986;1274;22451;-76
2021/11/29 10:54:59;;;;;;;45.10;39.20;;;;;;;1.83;80.82;98667.48;109024;1274;23350;-76
2021/11/29 10:57:32;;;;;;;49.80;41.50;;;;;;;1.84;80.57;98668.06;108946;1274;22321;-76
2021/11/29 11:00:07;;;;;;;49.30;43.80;;;;;;;1.83;80.43;98667.11;109019;1274;23603;-76
2021/11/29 11:02:37;;;;;;;52.50;44.50;;;;;;;1.84;80.44;98668.72;108913;1274;22212;-75
2021/11/29 11:05:12;;;;;;;58.00;44.30;;;;;;;1.85;80.22;98665.30;108996;1274;23056;-76
2021/11/29 11:07:41;;;;;;;55.50;44.60;;;;;;;1.81;79.96;98668.70;109204;1274;21984;-76
2021/11/29 11:10:14;;;;;;;53.80;44.70;;;;;;;1.80;80.03;98668.43;108964;1274;21987;-76
2021/11/29 11:12:58;;;;;;;61.00;50.70;;;;;;;1.81;79.98;98669.21;108954;1274;24316;-75
2021/11/29 11:15:28;;;;;;;47.40;41.70;;;;;;;1.82;80.02;98672.90;109233;1274;21982;-75
2021/11/29 11:18:04;;;;;;;44.90;38.60;;;;;;;1.84;79.97;98675.55;108946;1273;24391;-75
2021/11/29 11:20:33;;;;;;;43.60;37.10;;;;;;;1.87;80.12;98675.20;108876;1274;24469;-75
2021/11/29 11:23:05;;;;;;;42.00;36.80;;;;;;;1.86;79.80;98674.27;109136;1274;23666;-75
2021/11/29 11:25:42;;;;;;;43.50;36.90;;;;;;;1.84;79.77;98673.08;109135;1274;21986;-76
2021/11/29 11:28:12;;;;;;;40.80;36.30;;;;;;;1.82;79.59;98678.48;108932;1274;22316;-75
2021/11/29 11:30:43;;;;;;;49.40;38.10;;;;;;;1.77;79.48;98679.30;108598;1280;23149;-75
2021/11/29 11:33:20;;;;;;;44.10;37.70;;;;;;;1.77;79.49;98686.09;108675;1280;23767;-75
2021/11/29 11:35:53;;;;;;;46.20;37.90;;;;;;;1.76;79.52;98687.98;108656;1280;21992;-75
2021/11/29 11:38:25;;;;;;;49.30;39.50;;;;;;;1.78;79.43;98692.23;108647;1280;21979;-76